Monday, June 25, 2018, 12:20 AM EDT
Back to Local

KIZG, Fryeburg Eastern Slopes Rgnl

Location: Fryeburg, ME, United States Lat: 43.983
Local Time: 12:20 AM EDT ( 4:20 GMT) Lon: -70.95
Time Zone: US/Eastern Elev: 452 ft

Show me the last for .
Show Decoded

2018-06-24 23:54 METAR KIZG 250354Z AUTO 31003KT 10SM FEW065 OVC080 17/17 A2983 RMK AO2 RAB06E37
                 SLP102 P0000 T01720172 =
2018-06-24 22:54 METAR KIZG 250254Z AUTO 00000KT 10SM OVC065 17/17 A2984 RMK AO2 SLP103 T01720172
                 53001 =
2018-06-24 21:54 METAR KIZG 250154Z AUTO 00000KT 10SM OVC060 18/18 A2984 RMK AO2 SLP104 T01780178
                 =
2018-06-24 20:54 METAR KIZG 250054Z AUTO 00000KT 10SM OVC055 18/18 A2983 RMK AO2 SLP101 T01780178
                 =
2018-06-24 19:54 METAR KIZG 242354Z AUTO 00000KT 10SM BKN050 OVC070 19/18 A2983 RMK AO2 SLP103
                 60000 T01890183 10211 20183 53004 =
2018-06-24 18:54 METAR KIZG 242254Z AUTO 00000KT 10SM OVC044 19/18 A2982 RMK AO2 SLP098 T01940183
                 =
2018-06-24 17:54 METAR KIZG 242154Z AUTO 19003KT 10SM OVC040 18/18 A2983 RMK AO2 SLP101 T01830183
                 =
2018-06-24 16:54 METAR KIZG 242054Z AUTO 00000KT 10SM FEW020 BKN032 OVC040 19/18 A2982 RMK AO2
                 RAB08E26 SLP099 P0000 60000 T01940183 53006 =
2018-06-24 15:54 METAR KIZG 241954Z AUTO 00000KT 10SM OVC031 21/17 A2981 RMK AO2 SLP094 T02060172
                 =
2018-06-24 15:09 METAR KIZG 241909Z AUTO 00000KT 10SM SCT023 OVC034 21/17 A2981 RMK AO2 T02060172
                 =
2018-06-24 14:54 METAR KIZG 241854Z AUTO 00000KT 10SM BKN023 OVC035 21/17 A2981 RMK AO2 SLP094
                 T02060172 =
2018-06-24 13:54 METAR KIZG 241754Z AUTO 00000KT 10SM BKN018 BKN043 OVC050 21/17 A2980 RMK AO2
                 SLP093 T02060167 10211 20128 58007 =
2018-06-24 12:54 METAR KIZG 241654Z AUTO VRB03KT 10SM OVC015 20/17 A2982 RMK AO2 SLP097 T02000167
                 =
2018-06-24 11:54 METAR KIZG 241554Z AUTO 00000KT 10SM OVC010 17/16 A2983 RMK AO2 CIG 009V014
                 SLP100 T01720156 =
2018-06-24 11:32 METAR KIZG 241532Z AUTO 04003KT 10SM OVC012 17/16 A2982 RMK AO2 T01720156 =
2018-06-24 10:54 METAR KIZG 241454Z AUTO 00000KT 10SM OVC009 17/15 A2983 RMK AO2 SLP102 T01670150
                 51014 =
2018-06-24 09:54 METAR KIZG 241354Z AUTO 04003KT 10SM BKN007 OVC070 16/14 A2982 RMK AO2 SLP098
                 T01560144 =
2018-06-24 09:16 METAR KIZG 241316Z AUTO 00000KT 10SM OVC005 14/14 A2982 RMK AO2 CIG 004V008
                 T01440139 =
2018-06-24 08:54 METAR KIZG 241254Z AUTO 00000KT 10SM OVC004 14/14 A2982 RMK AO2 SLP098 T01390139
                 =
2018-06-24 08:21 METAR KIZG 241221Z AUTO 00000KT 10SM OVC004 13/13 A2980 RMK AO2 T01330133 =
2018-06-24 07:54 METAR KIZG 241154Z AUTO 00000KT 10SM OVC005 13/13 A2979 RMK AO2 SLP089 70019
                 T01280128 10133 20111 50003 =
2018-06-24 06:54 METAR KIZG 241054Z AUTO 00000KT 10SM OVC006 12/12 A2981 RMK AO2 SLP094 T01220122
                 =
2018-06-24 05:54 METAR KIZG 240954Z AUTO 00000KT 10SM OVC006 12/12 A2980 RMK AO2 SLP092 T01170117
                 =
2018-06-24 05:31 METAR KIZG 240931Z AUTO 00000KT 10SM OVC006 11/11 A2978 RMK AO2 CIG 003V008
                 T01110111 =
2018-06-24 05:16 METAR KIZG 240916Z AUTO 00000KT 10SM BKN004 OVC011 12/12 A2978 RMK AO2 T01170117
                 =
2018-06-24 05:08 METAR KIZG 240908Z AUTO 00000KT 10SM SCT004 OVC011 11/11 A2978 RMK AO2 T01110111
                 =
2018-06-24 04:54 METAR KIZG 240854Z AUTO 00000KT 10SM SCT004 BKN009 OVC034 11/11 A2978 RMK AO2
                 CIG 008V012 SLP087 T01110111 56008 =
2018-06-24 04:26 METAR KIZG 240826Z AUTO 00000KT 10SM FEW004 BKN009 OVC033 12/12 A2978 RMK AO2
                 T01170117 =
2018-06-24 04:05 METAR KIZG 240805Z AUTO 00000KT 10SM SCT007 OVC033 12/12 A2978 RMK AO2 T01170117
                 =
2018-06-24 03:54 METAR KIZG 240754Z AUTO 00000KT 10SM BKN007 OVC035 12/12 A2978 RMK AO2 SLP086
                 T01170117 =
2018-06-24 03:41 METAR KIZG 240741Z AUTO 00000KT 10SM BKN007 OVC037 12/12 A2979 RMK AO2 T01170117
                 =
2018-06-24 03:03 METAR KIZG 240703Z AUTO 00000KT 10SM FEW004 OVC033 12/12 A2980 RMK AO2 T01170117
                 =
2018-06-24 02:54 METAR KIZG 240654Z AUTO 00000KT 10SM OVC033 12/12 A2980 RMK AO2 SLP090 T01170117
                 =
2018-06-24 01:54 METAR KIZG 240554Z AUTO 00000KT 10SM OVC036 11/11 A2981 RMK AO2 SLP094 P0002
                 60009 T01110111 10117 20111 56015 =
2018-06-24 01:43 METAR KIZG 240543Z AUTO 00000KT 10SM SCT004 OVC038 11/11 A2982 RMK AO2 P0002
                 T01110111 =
2018-06-24 00:54 METAR KIZG 240454Z AUTO 00000KT 10SM BKN004 OVC026 12/12 A2982 RMK AO2 RAE52
                 SLP099 P0002 T01170117 401940100 =
2018-06-24 00:52 METAR KIZG 240452Z AUTO 00000KT 10SM BKN004 OVC026 12/12 A2982 RMK AO2 RAE52
                 P0002 =
2018-06-24 00:27 METAR KIZG 240427Z AUTO 00000KT 10SM -RA FEW006 OVC027 11/11 A2984 RMK AO2 P0001
                 T01110111 =

Support USWX by starting your Amazon purchase here.